Create Tblcommutelog Verified Points Advance Search
| # | Trip ID | Id Commuter | Trip Date | Trip Num | Current Lat | Current Lng | Delta Distance | Current Time | Activity | Activity Confidence | Current Speed | |
|---|---|---|---|---|---|---|---|---|---|---|---|---|
| 73281 | 250415_754743_16620935_1830 | 754743 | (not set) | (not set) | 38.900045776973 | -77.022646444281 | 1.2293 | 2025-04-15 22:44:21.815 | in_vehicle | 100 | -0.44703925898772 | |
| 73282 | 250415_778808_16646462_1813 | 778808 | (not set) | (not set) | 38.876480748226 | -77.00575977709 | 5.9253 | 2025-04-15 22:44:22.313 | on_foot | 100 | -0.44703925898772 | |
| 73283 | 250415_778808_16646462_1813 | 778808 | (not set) | (not set) | 38.876381231649 | -77.006690482471 | 5.9253 | 2025-04-15 22:44:27.461 | on_foot | 100 | -0.44703925898772 | |
| 73284 | 250415_731669_16595792_1640 | 731669 | (not set) | (not set) | 38.734873329297 | -77.54237063224 | 37.5001 | 2025-04-15 22:44:30.182 | in_vehicle | 100 | 9.3699428683827 | |
| 73285 | 250415_778808_16646462_1813 | 778808 | (not set) | (not set) | 38.876338455605 | -77.00744830282 | 6.073 | 2025-04-15 22:44:32.024 | on_foot | 100 | 0.084937459207668 | |
| 73286 | 250415_772317_16639583_1823 | 772317 | (not set) | (not set) | 38.926970928124 | -77.049407480791 | 3.3026 | 2025-04-15 22:44:32.287 | unknown | 100 | 3.0622189240659 | |
| 73287 | 250415_754743_16620935_1830 | 754743 | (not set) | (not set) | 38.898411600312 | -77.023662443469 | 1.2293 | 2025-04-15 22:44:34.348 | in_vehicle | 100 | -0.44703925898772 | |
| 73288 | 250415_754743_16620935_1830 | 754743 | (not set) | (not set) | 38.898149771667 | -77.023829191991 | 2.062 | 2025-04-15 22:44:34.724 | in_vehicle | 100 | -0.44703925898772 | |
| 73289 | 250415_780758_16648435_1711 | 780758 | (not set) | (not set) | 38.962978849536 | -77.345423870768 | 20.3795 | 2025-04-15 22:44:40.371 | on_foot | 100 | 0.28610512575214 | |
| 73290 | 250415_731669_16595792_1640 | 731669 | (not set) | (not set) | 38.73360541451 | -77.544857466036 | 37.6605 | 2025-04-15 22:44:44.313 | in_vehicle | 100 | 6.6966480996361 | |
| 73291 | 250415_781727_16649426_1831 | 781727 | (not set) | (not set) | 38.892235597038 | -77.04517563658 | 0.4857 | 2025-04-15 22:44:48.442 | unknown | 100 | 3.0979820647849 | |
| 73292 | 250415_783396_16651128_1839 | 783396 | (not set) | (not set) | 39.31476 | -76.6181215 | 0.9219 | 2025-04-15 22:44:49.426 | on_bicycle | 100 | 1.8507425322092 | |
| 73293 | 250415_754743_16620935_1830 | 754743 | (not set) | (not set) | 38.898055023643 | -77.023185386488 | 2.062 | 2025-04-15 22:44:55.987 | in_vehicle | 100 | -0.44703925898772 | |
| 73294 | 250415_754743_16620935_1830 | 754743 | (not set) | (not set) | 38.898640651794 | -77.023167910263 | 2.062 | 2025-04-15 22:44:57.257 | in_vehicle | 100 | -0.44703925898772 | |
| 73295 | 250415_781727_16649426_1831 | 781727 | (not set) | (not set) | 38.892191455426 | -77.046395445317 | 0.5515 | 2025-04-15 22:44:58.188 | unknown | 100 | 4.8280239970674 | |
| 73296 | 250415_754743_16620935_1830 | 754743 | (not set) | (not set) | 38.899443091189 | -77.021738791525 | 2.2057 | 2025-04-15 22:44:58.868 | in_vehicle | 100 | -0.44703925898772 | |
| 73297 | 250415_772317_16639583_1823 | 772317 | (not set) | (not set) | 38.927378589062 | -77.048355851429 | 3.3658 | 2025-04-15 22:45:07.338 | unknown | 100 | 2.838699294572 | |
| 73298 | 250415_731669_16595792_1640 | 731669 | (not set) | (not set) | 38.73317836908 | -77.545469097665 | 37.7047 | 2025-04-15 22:45:10.294 | still | 100 | 0 | |
| 73299 | 250415_731669_16595792_1640 | 731669 | (not set) | (not set) | 38.73317836908 | -77.545469097665 | 37.7047 | 2025-04-15 22:45:11.111 | still | 100 | 0 | |
| 73300 | 250415_781727_16649426_1831 | 781727 | (not set) | (not set) | 38.892186653137 | -77.048169495227 | 0.6472 | 2025-04-15 22:45:12.595 | unknown | 100 | 4.3273400270012 |